Hannover, Germany

9:48 AM CEST on July 27, 2016 (GMT +0200)
Riedgrasweg | | Change Station

Elev 150 ft 52.48 °N, 9.74 °E | Updated 7 minutes ago

Mostly Cloudy
Mostly Cloudy
67.5 °F
Feels Like 67.5 °F
N
1.2
Wind Variable Wind from SSW
Gusts 4.3 mph

Today
High -- | Low -- °F
--% Chance of Precip.
Yesterday
High -- | Low -- °F
Precip. -- in
Pressure 30.04 in
Visibility 6.2 miles
Clouds Mostly Cloudy 900 ft
Mostly Cloudy 28000 ft
Dew Point 63 °F
Humidity 85%
Rainfall 0.23 in
Snow Depth Not available.
5:33 AM 9:20 PM
Last Quarter, 46% visible
METAR EDDV 270720Z VRB02KT 9999 BKN009 BKN280 18/16 Q1017 BECMG SCT010
Pressure 30.04 in
Visibility 6.2 miles
Clouds Mostly Cloudy 900 ft
Mostly Cloudy 28000 ft
Dew Point 63 °F
Humidity 85%
Rainfall 0.23 in
Snow Depth Not available.
5:33 AM 9:20 PM
Last Quarter, 46% visible
METAR EDDV 270720Z VRB02KT 9999 BKN009 BKN280 18/16 Q1017 BECMG SCT010

10-Day Weather Forecast

×

Almanac

Astronomy

Jul. 27, 2016 Rise Set
Actual Time
Civil Twilight
Nautical Twilight
Astronomical Twilight
Moon
Length of Visible Light
Length of Day
Tomorrow will be .
, % of the Moon is Illuminated

Today's Extremes

Country Highs Country Lows

Community

WunderPhotos

Upload Photos

1,927,818 photos uploaded!

WunderBlog® & News

Nearby

Air Quality

  Air Quality AQ Index Pollutant
Not available.

Snow Depth

Station Depth Elevation

Earthquake Activity

City Distance Mag. Time & Date
Minimum magnitude displayed is 2.5.

Coastal Water Temperatures

Place Temperature

Stations

Nearby Weather Stations

Station Location Temp. Windchill Dew Point Humidity Wind Precip. Elev Updated Type